Time;durP1;ratioP1;P1;durP2;ratioP2;P2;SDS_P1;SDS_P2;PMS_P1;PMS_P2;Temp;Humidity;BMP_temperature;BMP_pressure;BME280_temperature;BME280_humidity;BME280_pressure;Samples;Min_cycle;Max_cycle;Signal;HPM_P1;HPM_P2
2021/09/30 00:02:07;;;;;;;8.30;6.30;;;;;;;15.46;81.60;101115.19;5129744;28;20035;-62
2021/09/30 00:04:32;;;;;;;8.07;6.30;;;;;;;15.43;82.19;101123.59;5129706;27;20110;-62
2021/09/30 00:06:58;;;;;;;7.75;6.03;;;;;;;15.40;81.79;101117.59;5129582;27;20019;-62
2021/09/30 00:09:23;;;;;;;8.05;6.03;;;;;;;15.37;82.38;101129.56;5129780;27;20038;-62
2021/09/30 00:11:53;;;;;;;11.23;7.03;;;;;;;15.33;82.61;101125.41;5129414;27;20027;-62
2021/09/30 00:33:27;;;;;;;8.95;6.80;;;;;;;15.17;83.82;101116.19;5133544;27;20042;-62
2021/09/30 00:46:49;;;;;;;10.35;6.03;;;;;;;15.00;85.63;101109.66;5132934;27;20130;-62
2021/09/30 00:52:17;;;;;;;9.07;6.28;;;;;;;14.94;85.49;101110.25;5132930;27;20432;-62
2021/09/30 02:19:40;;;;;;;6.53;5.50;;;;;;;14.93;85.15;101149.06;5126920;27;19921;-62
2021/09/30 02:22:23;;;;;;;7.78;6.28;;;;;;;14.93;85.33;101149.06;5128671;27;20050;-62
2021/09/30 03:00:40;;;;;;;;;;;;;;;14.88;89.37;101159.44;5129935;27;20042;-62
2021/09/30 03:03:08;;;;;;;10.13;7.32;;;;;;;14.84;89.25;101146.38;5129502;27;20244;-62
2021/09/30 03:05:35;;;;;;;9.95;6.65;;;;;;;14.85;89.75;101158.88;5129528;27;20039;-62
2021/09/30 03:08:01;;;;;;;9.60;6.63;;;;;;;14.85;89.99;101153.47;5128199;27;20114;-63
2021/09/30 03:10:27;;;;;;;12.88;7.35;;;;;;;14.83;89.87;101155.47;5129532;27;20106;-62
2021/09/30 03:12:55;;;;;;;9.07;7.30;;;;;;;14.81;89.97;101162.84;5129278;27;20026;-62
2021/09/30 03:23:19;;;;;;;12.82;7.38;;;;;;;14.76;91.63;101163.25;5129337;27;20050;-62
2021/09/30 03:25:48;;;;;;;8.93;6.78;;;;;;;14.76;91.53;101155.16;5129021;27;20458;-62
2021/09/30 03:28:16;;;;;;;9.63;6.35;;;;;;;14.78;91.42;101158.59;5127873;27;20393;-62
2021/09/30 03:30:44;;;;;;;12.02;6.40;;;;;;;14.80;90.70;101161.97;5127933;28;20446;-62
2021/09/30 03:33:11;;;;;;;11.65;6.78;;;;;;;14.82;90.36;101159.16;5129296;27;20094;-62
2021/09/30 03:35:39;;;;;;;12.15;6.65;;;;;;;14.85;89.53;101164.25;5129430;27;20628;-62
2021/09/30 03:38:06;;;;;;;9.05;6.35;;;;;;;14.85;89.05;101166.97;5128016;27;20027;-62
2021/09/30 03:40:32;;;;;;;9.07;6.68;;;;;;;14.75;87.91;101150.78;5129512;27;20027;-62
2021/09/30 03:42:58;;;;;;;10.25;6.35;;;;;;;14.87;87.44;101175.78;5128977;27;20027;-62
2021/09/30 03:45:23;;;;;;;10.63;6.20;;;;;;;14.83;87.35;101177.06;5128998;27;20608;-62
2021/09/30 03:47:49;;;;;;;7.70;6.13;;;;;;;14.83;87.13;101175.22;5129197;27;20073;-62
2021/09/30 03:50:18;;;;;;;10.25;6.45;;;;;;;14.83;87.00;101168.97;5128856;27;20025;-62
2021/09/30 03:55:43;;;;;;;10.63;6.20;;;;;;;14.87;86.09;101178.50;5128985;27;20023;-62
2021/09/30 04:00:53;;;;;;;10.25;6.65;;;;;;;14.89;86.02;101181.88;5133471;27;20046;-62
2021/09/30 04:03:19;;;;;;;10.00;6.40;;;;;;;14.88;85.76;101183.75;5132865;27;20114;-62
2021/09/30 04:05:44;;;;;;;11.38;6.53;;;;;;;14.90;86.30;101178.22;5132977;27;20042;-62
2021/09/30 04:08:10;;;;;;;9.45;7.10;;;;;;;14.92;88.19;101185.16;5131395;27;20034;-62
2021/09/30 04:10:35;;;;;;;9.70;6.70;;;;;;;14.94;89.42;101188.59;5133253;27;20062;-63
2021/09/30 04:13:01;;;;;;;8.18;6.55;;;;;;;14.95;89.49;101187.59;5132838;27;20042;-62
2021/09/30 04:15:26;;;;;;;8.80;6.15;;;;;;;14.98;90.03;101181.03;5132955;27;20027;-62
2021/09/30 04:17:52;;;;;;;11.27;6.50;;;;;;;15.02;90.64;101187.88;5132322;27;20039;-62
2021/09/30 04:20:17;;;;;;;8.02;6.45;;;;;;;15.04;90.54;101180.47;5133462;27;20026;-61
2021/09/30 04:22:45;;;;;;;9.68;6.85;;;;;;;15.05;90.62;101183.03;5132733;27;20031;-62
2021/09/30 04:25:12;;;;;;;7.40;6.60;;;;;;;15.05;90.55;101183.03;5128890;27;20027;-62
2021/09/30 04:27:38;;;;;;;9.05;6.82;;;;;;;15.09;90.79;101183.63;5132995;27;20039;-62
2021/09/30 04:30:05;;;;;;;11.52;6.47;;;;;;;15.04;90.37;101178.66;5132387;27;20038;-62
2021/09/30 04:32:30;;;;;;;13.52;6.55;;;;;;;15.07;90.30;101186.47;5132472;27;20071;-62
2021/09/30 04:34:56;;;;;;;10.88;6.90;;;;;;;15.01;89.92;101184.34;5132480;27;20110;-62
2021/09/30 04:37:22;;;;;;;12.82;7.40;;;;;;;15.00;90.37;101190.72;5132446;27;20405;-62
2021/09/30 04:39:48;;;;;;;12.00;6.40;;;;;;;14.99;89.99;101186.31;5132220;27;20023;-62
2021/09/30 04:42:13;;;;;;;10.15;7.35;;;;;;;14.98;89.71;101192.72;5132343;27;20015;-62
2021/09/30 04:44:39;;;;;;;9.98;6.15;;;;;;;15.00;89.09;101192.56;5126242;27;20034;-62
2021/09/30 04:47:04;;;;;;;7.75;6.30;;;;;;;14.98;87.61;101190.00;5130344;27;20100;-62
2021/09/30 04:49:29;;;;;;;7.78;6.40;;;;;;;15.00;86.57;101193.41;5130928;27;20084;-62
2021/09/30 04:51:55;;;;;;;10.38;6.95;;;;;;;15.00;85.79;101201.50;5131463;27;20367;-62
2021/09/30 04:54:20;;;;;;;12.50;6.35;;;;;;;14.97;85.75;101199.13;5131267;27;20027;-62
2021/09/30 04:56:46;;;;;;;9.25;6.80;;;;;;;15.00;84.89;101201.50;5129725;27;20027;-62
2021/09/30 04:59:11;;;;;;;8.80;6.72;;;;;;;15.00;84.38;101195.28;5129777;27;20046;-62
2021/09/30 05:01:38;;;;;;;14.25;6.50;;;;;;;15.03;84.50;101206.63;5131473;27;20047;-62
2021/09/30 05:04:03;;;;;;;9.00;6.72;;;;;;;15.01;84.54;101205.09;5131131;27;20430;-61
2021/09/30 05:06:29;;;;;;;9.75;6.82;;;;;;;15.04;84.09;101212.91;5129727;27;20079;-62
2021/09/30 05:08:58;;;;;;;9.65;6.38;;;;;;;15.04;83.43;101212.91;5129763;27;20031;-62
2021/09/30 05:11:24;;;;;;;9.75;6.40;;;;;;;15.08;83.94;101214.31;5131042;27;20039;-61
2021/09/30 05:13:54;;;;;;;11.30;6.18;;;;;;;15.01;83.99;101205.94;5130988;27;20035;-61
2021/09/30 05:16:19;;;;;;;8.95;6.50;;;;;;;15.08;83.60;101226.00;5129271;27;20019;-63
2021/09/30 05:18:47;;;;;;;10.75;6.95;;;;;;;15.06;83.51;101222.56;5130442;27;20413;-62
2021/09/30 05:21:13;;;;;;;10.57;6.93;;;;;;;15.09;83.88;101230.41;5129391;27;20034;-62
2021/09/30 05:23:38;;;;;;;8.02;6.38;;;;;;;15.08;83.64;101223.28;5129972;27;20027;-62
2021/09/30 05:26:04;;;;;;;11.02;6.55;;;;;;;15.11;83.17;101239.22;5130008;27;20023;-62
2021/09/30 05:28:29;;;;;;;10.38;6.55;;;;;;;15.10;83.49;101228.56;5131775;27;20085;-62
2021/09/30 05:30:55;;;;;;;14.43;6.97;;;;;;;15.10;83.40;101234.81;5130357;27;20042;-62
2021/09/30 05:33:21;;;;;;;9.30;6.53;;;;;;;15.08;83.29;101233.22;5131743;27;20026;-62
2021/09/30 05:35:47;;;;;;;12.63;6.43;;;;;;;15.06;83.43;101236.06;5131671;27;20114;-62
2021/09/30 05:38:13;;;;;;;15.00;7.20;;;;;;;15.08;83.97;101250.31;5131626;27;20035;-62
2021/09/30 05:40:39;;;;;;;16.30;7.30;;;;;;;15.08;85.44;101246.75;5129359;27;20026;-63
2021/09/30 05:43:08;;;;;;;12.52;7.95;;;;;;;15.05;86.58;101245.19;5131536;27;20030;-62
2021/09/30 05:45:41;;;;;;;12.13;7.07;;;;;;;15.05;87.03;101250.59;5131070;27;20474;-62
2021/09/30 05:48:07;;;;;;;11.00;7.15;;;;;;;15.03;87.23;101249.88;5131719;27;20026;-61
2021/09/30 05:50:32;;;;;;;16.15;7.88;;;;;;;15.05;87.24;101241.63;5131272;27;20462;-62
2021/09/30 05:52:58;;;;;;;13.75;8.65;;;;;;;15.09;87.52;101252.00;5131347;27;20053;-62
2021/09/30 05:55:23;;;;;;;16.63;8.02;;;;;;;15.10;87.60;101255.59;5131077;27;20401;-62
2021/09/30 05:57:49;;;;;;;17.42;8.55;;;;;;;15.11;88.46;101259.97;5129749;27;20019;-62
2021/09/30 06:00:23;;;;;;;12.50;8.50;;;;;;;15.13;89.07;101275.06;5130124;27;20022;-62
2021/09/30 06:11:03;;;;;;;14.45;9.30;;;;;;;15.13;87.73;101272.34;5130686;27;20144;-61
2021/09/30 06:16:23;;;;;;;17.55;10.13;;;;;;;15.12;86.37;101284.16;5114181;27;20042;-61
2021/09/30 06:18:49;;;;;;;18.10;11.13;;;;;;;15.11;86.70;101285.16;5129492;27;20095;-62
2021/09/30 06:21:15;;;;;;;18.55;10.73;;;;;;;15.14;87.35;101297.53;5129460;27;20023;-62
2021/09/30 06:23:40;;;;;;;15.85;10.52;;;;;;;15.16;88.37;101304.50;5130929;27;20085;-61
2021/09/30 06:26:06;;;;;;;19.60;10.88;;;;;;;15.20;88.68;101300.53;5130533;27;20083;-61
2021/09/30 06:28:32;;;;;;;15.95;10.43;;;;;;;15.21;88.74;101306.78;5130474;27;20075;-62
2021/09/30 06:30:57;;;;;;;16.63;10.70;;;;;;;15.25;88.70;101302.84;5130196;27;20027;-63
2021/09/30 06:33:24;;;;;;;17.33;10.60;;;;;;;15.24;88.68;101293.84;5130302;27;20026;-61
2021/09/30 06:35:53;;;;;;;18.77;9.82;;;;;;;15.30;87.46;101306.81;5130237;27;20122;-62
2021/09/30 06:38:19;;;;;;;16.83;9.93;;;;;;;15.35;87.22;101309.94;5130121;27;20358;-61
2021/09/30 06:40:45;;;;;;;13.88;9.32;;;;;;;15.38;86.68;101319.66;5130359;27;20042;-62
2021/09/30 06:43:11;;;;;;;18.08;10.27;;;;;;;15.38;86.52;101319.66;5130351;27;20026;-62
2021/09/30 06:45:37;;;;;;;16.13;10.15;;;;;;;15.44;86.42;101319.94;5129990;27;20457;-62
2021/09/30 06:48:03;;;;;;;19.15;10.55;;;;;;;15.44;86.78;101317.22;5129896;27;20034;-62
2021/09/30 06:50:28;;;;;;;16.35;10.15;;;;;;;15.44;86.83;101310.97;5129978;27;20122;-62
2021/09/30 06:52:54;;;;;;;21.27;10.40;;;;;;;15.49;85.78;101322.22;5128641;27;20058;-62
2021/09/30 06:55:19;;;;;;;14.90;9.93;;;;;;;15.51;84.34;101323.78;5129955;27;20563;-61
2021/09/30 06:57:46;;;;;;;18.98;10.15;;;;;;;15.50;84.03;101330.19;5130370;27;20480;-62
2021/09/30 07:00:12;;;;;;;16.50;10.55;;;;;;;15.50;84.09;101337.44;5129995;27;20027;-62
2021/09/30 07:02:39;;;;;;;17.50;10.75;;;;;;;15.44;84.58;101328.06;5128801;27;20023;-62
2021/09/30 07:05:05;;;;;;;16.90;10.77;;;;;;;15.47;85.21;101337.72;5127451;27;20114;-61
2021/09/30 07:07:31;;;;;;;17.92;10.52;;;;;;;15.48;85.50;101337.59;5129705;27;20485;-62
2021/09/30 07:09:56;;;;;;;18.35;10.35;;;;;;;15.50;85.26;101338.31;5128246;27;20032;-62
2021/09/30 07:12:22;;;;;;;15.88;10.02;;;;;;;15.52;84.38;101344.44;5130036;27;20030;-62
2021/09/30 07:14:47;;;;;;;15.77;11.30;;;;;;;15.48;83.95;101343.00;5128288;27;20114;-62
2021/09/30 07:17:13;;;;;;;22.15;12.02;;;;;;;15.50;84.04;101348.25;5129632;27;20095;-62
2021/09/30 07:19:39;;;;;;;25.25;12.07;;;;;;;15.50;83.68;101341.00;5129971;27;20496;-63
2021/09/30 07:22:06;;;;;;;19.42;11.90;;;;;;;15.52;83.65;101344.44;5129424;27;20064;-62
2021/09/30 07:24:32;;;;;;;18.33;11.00;;;;;;;15.52;83.83;101348.97;5129584;27;20076;-62
2021/09/30 07:26:59;;;;;;;20.20;11.70;;;;;;;15.48;84.09;101347.56;5129460;27;20035;-62
2021/09/30 07:29:25;;;;;;;18.23;12.15;;;;;;;15.53;84.03;101356.09;5129500;27;20378;-62
2021/09/30 07:31:50;;;;;;;19.30;11.98;;;;;;;15.53;84.15;101356.97;5128869;27;20055;-62
2021/09/30 07:34:16;;;;;;;15.23;11.32;;;;;;;15.54;84.45;101363.19;5128538;27;20035;-62
2021/09/30 07:36:43;;;;;;;20.73;12.27;;;;;;;15.47;85.48;101357.50;5129774;27;20031;-62
2021/09/30 07:39:11;;;;;;;18.17;10.77;;;;;;;15.43;86.93;101347.13;5129499;27;20039;-62
2021/09/30 07:41:38;;;;;;;16.98;11.45;;;;;;;15.46;87.09;101366.63;5129546;27;20026;-62
2021/09/30 07:44:05;;;;;;;18.52;11.57;;;;;;;15.40;87.43;101358.22;5128986;27;20079;-62
2021/09/30 07:46:32;;;;;;;17.02;11.43;;;;;;;15.38;87.28;101360.22;5129383;27;20027;-62
2021/09/30 07:48:58;;;;;;;18.67;11.48;;;;;;;15.38;87.78;101369.16;5129056;27;20019;-62
2021/09/30 07:51:23;;;;;;;16.77;11.23;;;;;;;15.38;88.72;101376.44;5129254;27;20019;-62
2021/09/30 07:53:49;;;;;;;14.40;10.50;;;;;;;15.32;89.71;101372.38;5129256;27;20030;-61
2021/09/30 07:56:14;;;;;;;17.52;11.30;;;;;;;15.33;90.17;101378.66;5129121;27;20031;-61
2021/09/30 07:58:40;;;;;;;16.65;11.30;;;;;;;15.33;91.08;101386.78;5127900;27;20046;-62
2021/09/30 08:01:05;;;;;;;19.45;12.70;;;;;;;15.31;92.45;101386.91;5129337;27;20117;-61
2021/09/30 08:03:31;;;;;;;19.65;11.80;;;;;;;15.31;92.36;101381.50;5129128;27;20038;-61
2021/09/30 08:05:56;;;;;;;16.58;12.63;;;;;;;15.31;93.42;101386.91;5129103;27;20419;-61
2021/09/30 08:08:22;;;;;;;19.00;11.82;;;;;;;15.26;93.71;101383.75;5129127;27;20046;-61
2021/09/30 08:10:47;;;;;;;20.23;11.93;;;;;;;15.27;93.66;101385.47;5129064;27;20470;-62
2021/09/30 08:13:13;;;;;;;17.30;11.68;;;;;;;15.28;94.03;101394.41;5129027;28;20071;-62
2021/09/30 08:15:38;;;;;;;18.08;11.77;;;;;;;15.28;93.52;101395.28;5129336;27;20031;-62
2021/09/30 08:18:04;;;;;;;18.20;11.65;;;;;;;15.27;93.47;101396.28;5128989;27;20039;-63
2021/09/30 08:20:31;;;;;;;17.08;11.15;;;;;;;15.29;94.06;101393.44;5129042;27;20053;-62
2021/09/30 08:22:56;;;;;;;19.83;11.43;;;;;;;15.30;94.16;101412.25;5128674;27;20096;-62
2021/09/30 08:25:23;;;;;;;18.25;12.40;;;;;;;15.30;94.32;101417.66;5127684;28;20035;-61
2021/09/30 08:27:48;;;;;;;17.20;11.30;;;;;;;15.27;94.91;101422.47;5128886;27;20019;-62
2021/09/30 08:30:14;;;;;;;21.13;12.65;;;;;;;15.24;95.54;101429.00;5129131;28;20030;-61
2021/09/30 08:32:39;;;;;;;17.08;11.55;;;;;;;15.24;95.79;101434.41;5129228;27;20046;-62
2021/09/30 08:35:06;;;;;;;17.15;11.98;;;;;;;15.18;96.63;101442.19;5128750;27;20035;-62
2021/09/30 08:37:32;;;;;;;19.27;13.32;;;;;;;15.13;96.97;101436.38;5128999;27;20079;-62
2021/09/30 08:39:58;;;;;;;18.13;12.63;;;;;;;15.04;98.52;101426.38;5127480;28;20386;-62
2021/09/30 08:42:24;;;;;;;22.00;13.60;;;;;;;15.03;98.90;101435.47;5126150;28;20035;-62
2021/09/30 08:44:52;;;;;;;17.33;12.13;;;;;;;15.05;99.12;101437.03;5130871;27;20038;-62
2021/09/30 08:47:20;;;;;;;18.63;13.90;;;;;;;15.02;98.95;101441.84;5132527;27;20023;-62
2021/09/30 08:49:45;;;;;;;18.10;12.90;;;;;;;14.95;99.76;101438.84;5132310;27;20058;-62
2021/09/30 08:52:11;;;;;;;17.92;13.43;;;;;;;14.88;100.00;101440.38;5132520;27;20033;-62
2021/09/30 08:54:37;;;;;;;17.10;12.50;;;;;;;14.86;100.00;101430.69;5132443;27;20766;-61
2021/09/30 08:57:05;;;;;;;21.98;12.63;;;;;;;14.86;100.00;101431.53;5132134;27;20023;-62
2021/09/30 08:59:31;;;;;;;20.20;12.40;;;;;;;14.90;100.00;101437.53;5132211;27;20023;-62
2021/09/30 09:02:14;;;;;;;16.63;11.43;;;;;;;14.91;100.00;101437.41;5130603;27;20039;-62
2021/09/30 09:04:57;;;;;;;16.83;11.00;;;;;;;14.90;100.00;101441.06;5132307;27;20023;-62
2021/09/30 09:07:25;;;;;;;15.70;11.82;;;;;;;14.93;100.00;101438.13;5132069;27;20023;-61
2021/09/30 09:09:51;;;;;;;17.55;10.40;;;;;;;14.95;99.60;101438.84;5131987;27;20027;-61
2021/09/30 09:12:17;;;;;;;16.33;10.77;;;;;;;14.95;99.90;101441.53;5130912;27;20022;-62
2021/09/30 09:14:43;;;;;;;15.70;10.45;;;;;;;14.91;100.00;101434.72;5130743;27;20114;-62
2021/09/30 09:17:11;;;;;;;14.88;10.80;;;;;;;14.98;100.00;101443.97;5131899;27;20114;-62
2021/09/30 09:19:39;;;;;;;19.02;11.20;;;;;;;14.95;100.00;101443.38;5131867;27;20134;-62
2021/09/30 09:22:30;;;;;;;17.42;10.02;;;;;;;14.97;99.61;101452.22;5131445;27;20030;-62
2021/09/30 09:24:58;;;;;;;16.38;10.30;;;;;;;14.97;99.40;101455.78;5122453;27;20482;-61
2021/09/30 09:27:42;;;;;;;16.35;10.57;;;;;;;14.95;99.70;101456.88;5130327;27;20072;-62
2021/09/30 09:30:32;;;;;;;13.82;10.38;;;;;;;14.95;100.00;101454.19;5131588;27;20038;-62
2021/09/30 09:33:13;;;;;;;16.23;10.25;;;;;;;14.93;99.75;101467.84;5131486;27;20062;-62
2021/09/30 09:35:51;;;;;;;16.38;10.73;;;;;;;14.90;99.87;101453.75;5131589;27;20035;-62
2021/09/30 09:38:18;;;;;;;13.95;9.55;;;;;;;14.89;99.21;101452.88;5131397;27;20449;-62
2021/09/30 09:40:44;;;;;;;15.25;9.82;;;;;;;14.86;99.27;101461.25;5130394;27;20030;-62
2021/09/30 09:43:32;;;;;;;15.60;9.50;;;;;;;14.88;97.04;101450.31;5131255;27;20027;-62
2021/09/30 09:45:59;;;;;;;15.20;9.90;;;;;;;14.86;97.16;101457.69;5130905;27;20042;-61
2021/09/30 09:48:25;;;;;;;14.77;10.48;;;;;;;14.83;98.18;101458.81;5129866;27;20103;-62
2021/09/30 09:50:52;;;;;;;14.50;10.32;;;;;;;14.78;99.25;101460.22;5131260;27;20421;-62
2021/09/30 09:53:18;;;;;;;14.68;10.43;;;;;;;14.79;99.77;101464.63;5130804;27;20039;-66
2021/09/30 09:55:44;;;;;;;14.00;10.98;;;;;;;14.78;100.00;101462.91;5131143;27;20034;-66
2021/09/30 09:58:16;;;;;;;17.20;11.77;;;;;;;14.75;100.00;101458.66;5129638;27;20386;-66
2021/09/30 10:01:01;;;;;;;16.98;11.95;;;;;;;14.73;100.00;101463.31;5131197;27;20385;-66
2021/09/30 10:03:32;;;;;;;15.02;10.43;;;;;;;14.74;100.00;101458.78;5129570;27;20084;-66
2021/09/30 10:06:03;;;;;;;17.48;11.93;;;;;;;14.71;100.00;101451.81;5130551;27;20023;-66
2021/09/30 10:08:28;;;;;;;16.35;11.38;;;;;;;14.75;100.00;101466.75;5130809;27;20031;-66
2021/09/30 10:10:56;;;;;;;17.85;12.55;;;;;;;14.80;100.00;101466.34;5130732;27;20027;-66
2021/09/30 10:13:24;;;;;;;16.27;12.07;;;;;;;14.81;100.00;101470.75;5130800;27;20030;-66
2021/09/30 10:15:54;;;;;;;18.38;12.63;;;;;;;14.79;100.00;101473.59;5129272;27;20030;-62
2021/09/30 10:18:22;;;;;;;17.80;12.30;;;;;;;14.82;100.00;101467.94;5128912;27;20035;-62
2021/09/30 10:20:48;;;;;;;17.63;12.80;;;;;;;14.80;100.00;101464.50;5131037;27;20478;-62
2021/09/30 10:23:14;;;;;;;21.50;12.23;;;;;;;14.80;100.00;101467.19;5130737;27;20027;-62
2021/09/30 10:25:43;;;;;;;17.58;12.07;;;;;;;14.79;100.00;101461.91;5130717;27;20019;-62
2021/09/30 10:28:12;;;;;;;17.92;12.43;;;;;;;14.78;100.00;101458.38;5130570;27;20023;-62
2021/09/30 10:30:47;;;;;;;18.20;12.43;;;;;;;14.78;100.00;101454.81;5130554;27;20034;-61
2021/09/30 10:33:19;;;;;;;18.98;12.18;;;;;;;14.80;100.00;101455.56;5130345;27;20055;-62
2021/09/30 10:35:50;;;;;;;18.95;11.93;;;;;;;14.82;100.00;101458.94;5130696;27;20027;-62
2021/09/30 10:38:29;;;;;;;17.70;12.45;;;;;;;14.83;100.00;101466.09;5129052;27;20117;-62
2021/09/30 10:41:00;;;;;;;15.73;12.48;;;;;;;14.83;100.00;101452.59;5130209;27;20031;-62
2021/09/30 10:43:31;;;;;;;20.83;12.75;;;;;;;14.85;100.00;101451.44;5126947;27;20049;-62
2021/09/30 10:45:58;;;;;;;18.25;12.43;;;;;;;14.77;100.00;101448.56;5129913;27;20055;-62
2021/09/30 10:48:23;;;;;;;17.33;12.88;;;;;;;14.81;100.00;101459.94;5129068;27;20095;-62
2021/09/30 10:51:11;;;;;;;15.52;12.43;;;;;;;14.81;100.00;101455.41;5130364;27;20026;-62
2021/09/30 10:53:45;;;;;;;16.20;12.40;;;;;;;14.83;100.00;101458.00;5129890;27;20027;-62
2021/09/30 10:56:49;;;;;;;;;;;;;;;14.81;100.00;101466.22;5129112;27;20034;-62
2021/09/30 10:59:19;;;;;;;17.42;12.98;;;;;;;14.81;100.00;101466.22;5130125;27;19918;-62
2021/09/30 11:01:52;;;;;;;19.85;13.35;;;;;;;14.81;100.00;101455.41;5129958;27;20100;-62
2021/09/30 11:04:18;;;;;;;18.33;13.07;;;;;;;14.82;100.00;101451.72;5130129;27;20037;-62
2021/09/30 11:07:05;;;;;;;19.05;13.70;;;;;;;14.79;100.00;101453.81;5129056;27;20031;-62
2021/09/30 11:09:31;;;;;;;20.10;13.98;;;;;;;14.75;100.00;101446.97;5129662;27;20023;-62
2021/09/30 11:12:12;;;;;;;21.10;13.68;;;;;;;14.75;100.00;101450.56;5129573;27;20022;-62
2021/09/30 11:14:54;;;;;;;24.15;14.75;;;;;;;14.75;100.00;101452.38;5129467;27;20031;-62
2021/09/30 11:17:39;;;;;;;21.52;14.63;;;;;;;14.78;100.00;101454.81;5129858;27;20039;-63
2021/09/30 11:20:32;;;;;;;19.95;13.25;;;;;;;14.79;100.00;101451.13;5129565;27;20525;-62
2021/09/30 11:22:59;;;;;;;22.88;14.18;;;;;;;14.81;100.00;101455.41;5129356;27;20019;-63
2021/09/30 11:26:02;;;;;;;19.10;14.07;;;;;;;14.86;100.00;101445.06;5129649;27;20076;-62
2021/09/30 11:28:27;;;;;;;21.35;14.18;;;;;;;14.88;100.00;101444.91;5129537;27;20019;-62
2021/09/30 11:31:25;;;;;;;19.98;13.73;;;;;;;14.90;100.00;101451.06;5128358;27;20084;-62
2021/09/30 11:33:53;;;;;;;20.38;13.93;;;;;;;14.91;100.00;101445.53;5129680;27;20031;-62
2021/09/30 11:36:19;;;;;;;18.80;13.65;;;;;;;14.91;100.00;101448.22;5129662;27;20054;-63
2021/09/30 11:38:46;;;;;;;23.15;14.30;;;;;;;14.92;100.00;101449.06;5129528;27;20023;-63
2021/09/30 11:41:12;;;;;;;20.92;14.20;;;;;;;14.93;100.00;101446.22;5129253;27;20456;-62
2021/09/30 11:43:39;;;;;;;23.10;14.68;;;;;;;14.92;100.00;101438.25;5129296;27;20023;-63
2021/09/30 11:46:38;;;;;;;22.52;14.70;;;;;;;14.95;100.00;101441.53;5128974;27;20023;-63
2021/09/30 11:49:06;;;;;;;22.88;16.52;;;;;;;14.96;100.00;101440.53;5113703;27;20091;-63
2021/09/30 11:51:33;;;;;;;21.00;15.63;;;;;;;14.97;100.00;101439.56;5129225;27;20027;-63
2021/09/30 11:54:00;;;;;;;21.92;15.48;;;;;;;15.00;100.00;101443.84;5128884;27;20035;-62
2021/09/30 11:56:26;;;;;;;22.48;16.65;;;;;;;14.94;100.00;101418.22;5127955;27;20432;-65
2021/09/30 11:59:05;;;;;;;21.98;16.88;;;;;;;15.05;100.00;101439.75;5129527;27;20034;-62
2021/09/30 12:01:42;;;;;;;23.65;17.83;;;;;;;15.06;100.00;101438.75;5129213;27;20406;-63
2021/09/30 12:04:09;;;;;;;21.45;16.90;;;;;;;15.05;100.00;101431.63;5129054;27;20088;-62
2021/09/30 12:06:41;;;;;;;22.40;17.75;;;;;;;15.08;100.00;101428.66;5129034;27;20470;-62
2021/09/30 12:09:14;;;;;;;23.63;18.83;;;;;;;15.11;100.00;101424.81;5128821;27;20095;-62
2021/09/30 12:11:53;;;;;;;23.50;18.25;;;;;;;15.13;100.00;101429.09;5127866;28;20031;-62
2021/09/30 12:14:19;;;;;;;26.48;19.17;;;;;;;15.14;100.00;101422.72;5129016;27;20050;-62
2021/09/30 12:16:56;;;;;;;23.73;18.15;;;;;;;15.17;100.00;101422.44;5127573;28;20043;-62
2021/09/30 12:19:29;;;;;;;22.02;17.42;;;;;;;15.19;100.00;101420.44;5132595;27;20030;-62
2021/09/30 12:21:55;;;;;;;22.17;18.08;;;;;;;15.17;100.00;101418.88;5132874;27;20051;-63
2021/09/30 12:24:20;;;;;;;25.80;17.95;;;;;;;15.18;100.00;101418.75;5133218;27;20058;-63
2021/09/30 12:26:46;;;;;;;22.60;17.13;;;;;;;15.18;100.00;101418.75;5133047;27;20038;-62
2021/09/30 12:29:11;;;;;;;23.92;17.95;;;;;;;15.18;100.00;101415.16;5131452;27;20090;-62
2021/09/30 12:31:37;;;;;;;20.08;16.35;;;;;;;15.17;100.00;101417.03;5131382;27;20030;-62
2021/09/30 12:34:21;;;;;;;21.60;15.40;;;;;;;15.22;100.00;101417.47;5132655;27;20113;-62
2021/09/30 12:36:47;;;;;;;18.27;13.85;;;;;;;15.21;100.00;101426.56;5132672;27;20436;-63
2021/09/30 12:39:12;;;;;;;18.15;14.25;;;;;;;15.22;100.00;101433.69;5132592;27;20027;-62
2021/09/30 12:41:37;;;;;;;18.88;13.88;;;;;;;15.20;100.00;101414.06;5132597;27;20047;-62
2021/09/30 12:44:11;;;;;;;21.20;13.68;;;;;;;15.20;100.00;101414.06;5132541;27;20015;-63
2021/09/30 12:46:41;;;;;;;18.13;13.60;;;;;;;15.23;100.00;101418.31;5132318;27;20548;-62
2021/09/30 12:49:07;;;;;;;16.48;12.93;;;;;;;15.23;100.00;101419.19;5132221;27;20110;-62
2021/09/30 12:51:32;;;;;;;17.52;12.15;;;;;;;15.23;100.00;101424.59;5132313;27;20106;-63
2021/09/30 12:53:58;;;;;;;14.23;11.63;;;;;;;15.19;100.00;101414.19;5132102;27;20023;-63
2021/09/30 12:56:29;;;;;;;16.33;12.80;;;;;;;15.19;100.00;101417.72;5132592;27;20024;-65
2021/09/30 12:58:55;;;;;;;18.33;13.23;;;;;;;15.15;100.00;101420.84;5132443;27;20031;-62
2021/09/30 13:01:26;;;;;;;15.85;12.60;;;;;;;15.13;100.00;101417.44;5132461;27;20023;-62
2021/09/30 13:04:03;;;;;;;18.40;14.05;;;;;;;15.13;100.00;101425.56;5132566;27;20478;-62
2021/09/30 13:06:29;;;;;;;15.82;13.15;;;;;;;15.12;100.00;101421.16;5132121;27;20019;-62
2021/09/30 13:08:54;;;;;;;18.58;13.35;;;;;;;15.11;100.00;101422.13;5130825;27;20030;-62
2021/09/30 13:11:30;;;;;;;19.00;13.70;;;;;;;15.13;100.00;101417.44;5130529;27;20027;-62
2021/09/30 13:14:20;;;;;;;16.85;13.15;;;;;;;15.14;100.00;101421.84;5132259;27;20019;-62
2021/09/30 13:16:50;;;;;;;19.52;14.93;;;;;;;15.15;100.00;101419.00;5131980;27;20039;-62
2021/09/30 13:19:16;;;;;;;20.88;14.80;;;;;;;15.13;100.00;101417.44;5131816;27;20496;-63
2021/09/30 13:22:01;;;;;;;17.42;14.15;;;;;;;15.14;100.00;101428.13;5131972;27;20096;-63
2021/09/30 13:24:27;;;;;;;20.27;14.98;;;;;;;15.13;100.00;101422.84;5132202;27;20031;-62
2021/09/30 13:26:53;;;;;;;16.63;14.02;;;;;;;15.13;100.00;101410.16;5132099;27;20091;-62
2021/09/30 13:29:18;;;;;;;20.42;16.05;;;;;;;15.10;100.00;101420.41;5130820;27;20023;-62
2021/09/30 13:31:44;;;;;;;20.70;15.70;;;;;;;15.04;100.00;101410.16;5131603;27;20023;-63
2021/09/30 13:34:09;;;;;;;19.15;15.10;;;;;;;15.05;100.00;101412.72;5131213;27;20035;-62
2021/09/30 13:36:35;;;;;;;21.35;16.13;;;;;;;15.05;100.00;101412.72;5131594;27;20124;-62
2021/09/30 13:39:00;;;;;;;20.48;15.20;;;;;;;15.06;100.00;101411.72;5130172;27;20026;-62
2021/09/30 13:41:26;;;;;;;17.77;15.52;;;;;;;15.06;100.00;101405.47;5131817;27;20106;-62
2021/09/30 13:43:52;;;;;;;21.70;17.00;;;;;;;15.11;100.00;101419.41;5131460;27;20076;-62
2021/09/30 13:46:18;;;;;;;20.63;16.95;;;;;;;15.11;100.00;101411.31;5130971;27;20030;-62
2021/09/30 13:48:44;;;;;;;18.02;15.75;;;;;;;15.12;100.00;101410.34;5131126;27;20053;-62
2021/09/30 13:51:10;;;;;;;21.38;15.93;;;;;;;15.11;100.00;101408.59;5131019;27;20031;-62
2021/09/30 13:53:35;;;;;;;19.90;16.15;;;;;;;15.16;100.00;101409.06;5131182;27;20105;-63
2021/09/30 13:56:01;;;;;;;20.42;16.38;;;;;;;15.18;100.00;101410.63;5129689;27;20378;-62
2021/09/30 13:58:26;;;;;;;18.77;15.50;;;;;;;15.17;100.00;101400.81;5131549;27;20378;-62
2021/09/30 14:00:52;;;;;;;21.35;17.73;;;;;;;15.18;100.00;101410.63;5131240;27;20063;-62
2021/09/30 14:03:18;;;;;;;18.00;15.68;;;;;;;15.20;100.00;101405.94;5130824;27;20034;-62
2021/09/30 14:05:44;;;;;;;18.70;15.80;;;;;;;15.21;100.00;101409.50;5130941;27;20034;-62
2021/09/30 14:08:12;;;;;;;18.77;16.52;;;;;;;15.21;100.00;101406.78;5130780;27;20109;-63
2021/09/30 14:10:37;;;;;;;20.88;16.20;;;;;;;15.20;100.00;101410.50;5130826;27;20027;-62
2021/09/30 14:13:03;;;;;;;21.20;16.27;;;;;;;15.20;100.00;101402.38;5130841;27;20052;-62
2021/09/30 14:15:28;;;;;;;23.10;16.58;;;;;;;15.20;100.00;101400.53;5129584;27;20521;-62